Time;durP1;ratioP1;P1;durP2;ratioP2;P2;SDS_P1;SDS_P2;PMS_P1;PMS_P2;Temp;Humidity;BMP_temperature;BMP_pressure;BME280_temperature;BME280_humidity;BME280_pressure;Samples;Min_cycle;Max_cycle;Signal;HPM_P1;HPM_P2
2023/01/14 00:01:51;;;;;;;52.35;31.63;;;4.80;99.90;;;;;;5086354;28;20024;-75
2023/01/14 00:04:16;;;;;;;35.30;23.75;;;4.80;99.90;;;;;;5093455;28;20448;-75
2023/01/14 00:06:42;;;;;;;35.13;24.20;;;4.80;99.90;;;;;;5073510;28;20032;-75
2023/01/14 00:09:11;;;;;;;34.55;21.65;;;4.70;99.90;;;;;;5097923;28;20395;-75
2023/01/14 00:11:46;;;;;;;30.58;20.27;;;4.70;99.90;;;;;;5094609;28;20032;-75
2023/01/14 00:14:15;;;;;;;30.17;20.15;;;4.70;99.90;;;;;;5072805;28;20082;-75
2023/01/14 00:16:41;;;;;;;29.40;17.92;;;4.70;99.90;;;;;;5094806;28;20124;-75
2023/01/14 00:19:08;;;;;;;27.50;16.67;;;4.60;99.90;;;;;;5097871;28;20484;-75
2023/01/14 00:21:33;;;;;;;21.05;14.48;;;4.60;99.90;;;;;;5092867;28;20099;-75
2023/01/14 00:23:59;;;;;;;25.77;13.77;;;4.60;99.90;;;;;;5097165;28;20070;-75
2023/01/14 00:26:25;;;;;;;18.48;14.75;;;4.50;99.90;;;;;;5084518;28;20025;-75
2023/01/14 00:28:52;;;;;;;26.83;19.90;;;4.60;99.90;;;;;;5098292;28;20057;-75
2023/01/14 00:31:20;;;;;;;27.65;15.52;;;4.60;99.90;;;;;;5089057;28;20027;-76
2023/01/14 00:33:47;;;;;;;22.98;13.45;;;4.60;99.90;;;;;;5098968;28;20016;-75
2023/01/14 00:36:15;;;;;;;41.08;29.17;;;4.60;99.90;;;;;;5092434;28;20028;-75
2023/01/14 00:38:41;;;;;;;32.50;14.90;;;4.60;99.90;;;;;;5099091;28;20062;-75
2023/01/14 00:41:11;;;;;;;26.85;14.27;;;4.60;99.90;;;;;;5090366;28;20032;-75
2023/01/14 00:43:39;;;;;;;18.40;13.48;;;4.60;99.90;;;;;;5080460;28;20059;-75
2023/01/14 00:46:06;;;;;;;19.33;14.80;;;4.50;99.90;;;;;;5090057;28;20500;-75
2023/01/14 00:48:36;;;;;;;25.52;15.15;;;4.60;99.90;;;;;;5095554;28;20120;-75
2023/01/14 00:51:02;;;;;;;26.27;16.17;;;4.60;99.90;;;;;;5094123;28;20020;-75
2023/01/14 00:53:28;;;;;;;20.95;13.73;;;4.60;99.90;;;;;;5099413;28;20031;-75
2023/01/14 00:55:55;;;;;;;21.92;13.00;;;4.60;99.90;;;;;;5087694;28;20012;-75
2023/01/14 00:58:21;;;;;;;27.10;16.45;;;4.60;99.90;;;;;;5095847;28;20442;-75
2023/01/14 01:00:47;;;;;;;28.73;15.43;;;4.60;99.90;;;;;;5090719;28;20089;-75
2023/01/14 01:03:14;;;;;;;20.45;9.82;;;4.60;99.90;;;;;;5096003;28;20081;-75
2023/01/14 01:05:40;;;;;;;21.85;10.88;;;4.60;99.90;;;;;;5089738;28;20092;-76
2023/01/14 01:08:09;;;;;;;21.00;10.00;;;4.50;99.90;;;;;;5096891;28;20377;-76
2023/01/14 01:10:35;;;;;;;15.32;9.73;;;4.60;99.90;;;;;;5092332;28;20050;-75
2023/01/14 01:13:04;;;;;;;22.20;8.25;;;4.60;99.90;;;;;;5097683;28;20040;-75
2023/01/14 01:15:37;;;;;;;28.42;13.25;;;4.50;99.90;;;;;;5093950;28;20024;-75
2023/01/14 01:18:04;;;;;;;21.10;13.38;;;4.50;99.90;;;;;;5097558;28;20020;-75
2023/01/14 01:20:31;;;;;;;17.77;11.50;;;4.50;99.90;;;;;;5080080;28;20380;-75
2023/01/14 01:22:57;;;;;;;26.10;13.45;;;4.50;99.90;;;;;;5086051;28;20016;-75
2023/01/14 01:25:23;;;;;;;17.92;13.43;;;4.40;99.90;;;;;;5086108;28;20096;-75
2023/01/14 01:27:49;;;;;;;19.35;12.25;;;4.30;99.90;;;;;;5085789;28;20020;-75
2023/01/14 01:30:15;;;;;;;27.33;12.70;;;4.30;99.90;;;;;;5090250;28;20107;-76
2023/01/14 01:32:41;;;;;;;26.88;12.98;;;4.20;99.90;;;;;;5087952;28;20052;-75
2023/01/14 01:35:07;;;;;;;21.15;13.32;;;4.20;99.90;;;;;;5091123;28;20024;-75
2023/01/14 01:37:33;;;;;;;24.13;12.13;;;4.10;99.90;;;;;;5087262;28;20487;-75
2023/01/14 01:39:59;;;;;;;23.83;13.48;;;4.10;99.90;;;;;;5092009;28;20032;-75
2023/01/14 01:42:28;;;;;;;17.88;13.43;;;4.00;99.90;;;;;;5089813;28;20403;-75
2023/01/14 01:44:54;;;;;;;17.45;13.10;;;3.90;99.90;;;;;;5091881;28;20052;-76
2023/01/14 01:47:21;;;;;;;21.88;12.70;;;3.90;99.90;;;;;;5090616;28;20024;-76
2023/01/14 01:49:47;;;;;;;18.55;14.30;;;3.80;99.90;;;;;;5091825;28;20035;-76
2023/01/14 01:52:13;;;;;;;19.00;12.68;;;3.80;99.90;;;;;;5091495;28;20050;-76
2023/01/14 01:55:00;;;;;;;27.73;14.98;;;3.80;99.90;;;;;;5092588;28;20028;-75
2023/01/14 01:57:26;;;;;;;16.92;13.75;;;3.80;99.90;;;;;;5086091;28;20464;-75
2023/01/14 01:59:59;;;;;;;21.00;14.68;;;3.70;99.90;;;;;;5091267;28;20035;-75
2023/01/14 02:02:26;;;;;;;22.55;14.38;;;3.70;99.90;;;;;;5079971;28;20036;-75
2023/01/14 02:04:52;;;;;;;22.75;14.05;;;3.60;99.90;;;;;;5091876;28;20020;-75
2023/01/14 02:07:25;;;;;;;22.10;14.70;;;3.60;99.90;;;;;;5087256;28;20032;-75
2023/01/14 02:10:04;;;;;;;24.67;15.25;;;3.50;99.90;;;;;;5077973;28;20084;-76
2023/01/14 02:12:49;;;;;;;22.25;14.50;;;3.50;99.90;;;;;;5089664;28;20530;-76
2023/01/14 02:15:48;;;;;;;24.15;14.20;;;3.40;99.90;;;;;;5083279;28;20107;-76
2023/01/14 02:18:26;;;;;;;21.23;14.50;;;3.40;99.90;;;;;;5097285;28;20491;-76
2023/01/14 02:21:08;;;;;;;20.67;14.60;;;3.30;99.90;;;;;;5077436;28;20051;-76
2023/01/14 02:23:57;;;;;;;21.60;13.88;;;3.30;99.90;;;;;;5087644;28;20093;-76
2023/01/14 02:26:46;;;;;;;25.42;14.38;;;3.30;99.90;;;;;;5074064;28;20077;-76
2023/01/14 02:29:27;;;;;;;18.90;12.65;;;3.30;99.90;;;;;;5091978;28;20028;-76
2023/01/14 02:32:19;;;;;;;13.05;11.35;;;3.20;99.90;;;;;;5085071;28;20443;-76
2023/01/14 02:34:57;;;;;;;17.55;10.70;;;3.20;99.90;;;;;;5060299;28;20044;-76
2023/01/14 02:37:30;;;;;;;18.73;11.00;;;3.30;99.90;;;;;;5076178;28;20020;-75
2023/01/14 02:40:20;;;;;;;22.10;12.32;;;3.30;99.90;;;;;;5090995;28;20039;-75
2023/01/14 02:46:02;;;;;;;;;;;3.30;99.90;;;;;;5089492;28;20039;-75
2023/01/14 02:48:30;;;;;;;22.60;12.90;;;3.30;99.90;;;;;;5092098;28;19911;-75
2023/01/14 02:50:56;;;;;;;16.25;12.40;;;3.30;99.90;;;;;;5077457;28;20032;-75
2023/01/14 02:53:22;;;;;;;16.90;11.38;;;3.30;99.90;;;;;;5092234;28;20081;-76
2023/01/14 02:55:50;;;;;;;19.48;11.63;;;3.30;99.90;;;;;;5076911;28;20028;-75
2023/01/14 02:58:37;;;;;;;22.38;14.35;;;3.20;99.90;;;;;;5078835;28;20078;-75
2023/01/14 03:01:32;;;;;;;17.98;12.32;;;3.20;99.90;;;;;;5089963;28;20035;-76
2023/01/14 03:04:07;;;;;;;16.50;11.95;;;3.20;99.90;;;;;;5084322;28;20048;-75
2023/01/14 03:06:44;;;;;;;16.35;12.40;;;3.20;99.90;;;;;;5067809;28;20031;-76
2023/01/14 03:09:19;;;;;;;21.98;12.18;;;3.20;99.90;;;;;;5094899;28;20035;-76
2023/01/14 03:11:53;;;;;;;15.77;12.02;;;3.20;99.90;;;;;;5085708;28;20017;-76
2023/01/14 03:14:30;;;;;;;21.52;12.98;;;3.10;99.90;;;;;;5075063;28;20044;-76
2023/01/14 03:17:04;;;;;;;22.83;13.18;;;3.10;99.90;;;;;;5076797;28;20020;-76
2023/01/14 03:19:36;;;;;;;17.00;12.80;;;3.10;99.90;;;;;;5076179;28;20024;-76
2023/01/14 03:22:05;;;;;;;17.67;13.32;;;3.10;99.90;;;;;;5086617;28;20067;-75
2023/01/14 03:24:35;;;;;;;16.80;12.68;;;3.10;99.90;;;;;;5089585;28;20030;-76
2023/01/14 03:27:08;;;;;;;20.33;13.43;;;3.10;99.90;;;;;;5078719;28;20115;-76
2023/01/14 03:29:37;;;;;;;19.40;14.23;;;3.20;99.90;;;;;;5089809;28;20093;-76
2023/01/14 03:32:10;;;;;;;22.48;14.10;;;3.20;99.90;;;;;;5085502;28;20036;-76
2023/01/14 03:34:42;;;;;;;21.35;15.05;;;3.20;99.90;;;;;;5063079;28;20024;-76
2023/01/14 03:37:12;;;;;;;19.63;14.07;;;3.20;99.90;;;;;;5083166;28;20021;-75
2023/01/14 03:39:44;;;;;;;19.90;15.13;;;3.20;99.90;;;;;;5091429;28;20027;-76
2023/01/14 03:42:20;;;;;;;21.27;13.70;;;3.20;99.90;;;;;;5091176;28;20024;-76
2023/01/14 03:45:27;;;;;;;15.27;12.52;;;3.20;99.90;;;;;;5094409;28;20368;-76
2023/01/14 03:47:53;;;;;;;19.13;13.32;;;3.20;99.90;;;;;;5090868;28;20020;-76
2023/01/14 03:50:23;;;;;;;19.25;13.10;;;3.20;99.90;;;;;;5081418;28;20035;-76
2023/01/14 03:53:01;;;;;;;15.95;14.20;;;3.20;99.90;;;;;;5082491;28;20462;-76
2023/01/14 03:56:02;;;;;;;25.08;14.02;;;3.20;99.90;;;;;;5080021;28;20523;-76
2023/01/14 03:58:39;;;;;;;30.27;16.33;;;3.20;99.90;;;;;;5095530;28;20399;-76
2023/01/14 04:01:14;;;;;;;22.55;14.32;;;3.20;99.90;;;;;;5079828;28;20020;-76
2023/01/14 04:03:41;;;;;;;20.98;12.75;;;3.20;99.90;;;;;;5100276;28;20019;-76
2023/01/14 04:06:08;;;;;;;20.17;13.13;;;3.10;99.90;;;;;;5084374;28;20025;-76
2023/01/14 04:08:34;;;;;;;17.27;12.95;;;3.10;99.90;;;;;;5099637;28;20024;-76
2023/01/14 04:11:00;;;;;;;19.15;13.13;;;3.10;99.90;;;;;;5086757;28;20031;-76
2023/01/14 04:16:10;;;;;;;13.75;11.70;;;3.00;99.90;;;;;;5087850;28;21559;-75
2023/01/14 04:18:35;;;;;;;15.00;11.68;;;3.00;99.90;;;;;;5100369;28;20020;-76
2023/01/14 04:21:01;;;;;;;17.48;12.38;;;3.00;99.90;;;;;;5079279;28;20032;-76
2023/01/14 04:23:27;;;;;;;21.77;12.48;;;3.00;99.90;;;;;;5071316;28;20077;-76
2023/01/14 04:25:59;;;;;;;20.13;12.25;;;3.10;99.90;;;;;;5087279;28;20028;-76
2023/01/14 04:28:25;;;;;;;16.63;12.45;;;3.00;99.90;;;;;;5090445;28;20020;-76
2023/01/14 04:30:51;;;;;;;18.05;11.45;;;3.00;99.90;;;;;;5080312;28;20396;-76
2023/01/14 04:33:17;;;;;;;23.20;12.02;;;3.00;99.90;;;;;;5090497;28;20046;-76
2023/01/14 04:35:50;;;;;;;18.95;11.98;;;3.00;99.90;;;;;;5080818;28;20434;-77
2023/01/14 04:38:20;;;;;;;16.38;11.52;;;3.00;99.90;;;;;;5081343;28;20023;-77
2023/01/14 04:40:50;;;;;;;23.15;11.80;;;2.90;99.90;;;;;;5092944;28;20476;-77
2023/01/14 04:43:16;;;;;;;21.50;12.23;;;2.90;99.90;;;;;;5092697;28;20032;-76
2023/01/14 04:45:42;;;;;;;17.00;11.50;;;3.00;99.90;;;;;;5080528;28;20032;-76
2023/01/14 04:48:07;;;;;;;17.80;12.70;;;2.90;99.90;;;;;;5093721;28;20443;-76
2023/01/14 04:50:41;;;;;;;16.67;11.55;;;2.90;99.90;;;;;;5092831;28;20024;-76
2023/01/14 04:53:09;;;;;;;13.65;11.27;;;2.90;99.90;;;;;;5094162;28;20373;-76
2023/01/14 04:55:37;;;;;;;13.25;10.77;;;2.90;99.90;;;;;;5092671;28;20077;-76
2023/01/14 04:58:04;;;;;;;13.77;12.27;;;2.80;99.90;;;;;;5095649;28;20031;-76
2023/01/14 05:00:30;;;;;;;21.13;12.80;;;2.80;99.90;;;;;;5088990;28;20028;-76
2023/01/14 05:02:55;;;;;;;24.35;14.32;;;2.80;99.90;;;;;;5078368;28;20028;-76
2023/01/14 05:05:21;;;;;;;18.02;13.48;;;2.80;99.90;;;;;;5091167;28;20104;-76
2023/01/14 05:07:47;;;;;;;18.55;13.25;;;2.80;99.90;;;;;;5093458;28;20032;-76
2023/01/14 05:10:14;;;;;;;22.00;12.48;;;2.90;99.90;;;;;;5093088;28;20439;-76
2023/01/14 05:12:55;;;;;;;14.40;10.93;;;2.90;99.90;;;;;;5075366;28;20040;-76
2023/01/14 05:15:29;;;;;;;20.63;12.90;;;2.80;99.90;;;;;;5069226;28;20031;-75
2023/01/14 05:17:55;;;;;;;19.08;14.27;;;2.70;99.90;;;;;;5077817;28;20020;-75
2023/01/14 05:20:23;;;;;;;28.30;17.45;;;2.80;99.90;;;;;;5095773;28;20035;-76
2023/01/14 05:22:49;;;;;;;33.05;19.75;;;2.80;99.90;;;;;;5080404;28;20028;-76
2023/01/14 05:25:15;;;;;;;27.10;18.48;;;2.70;99.90;;;;;;5088171;28;20412;-75
2023/01/14 05:27:41;;;;;;;23.58;18.73;;;2.70;99.90;;;;;;5077942;28;20032;-76
2023/01/14 05:30:07;;;;;;;27.13;14.77;;;2.80;99.90;;;;;;5076816;28;20032;-75
2023/01/14 05:32:33;;;;;;;23.15;13.35;;;2.70;99.90;;;;;;5085969;28;20109;-76
2023/01/14 05:34:59;;;;;;;16.63;12.70;;;2.60;99.90;;;;;;5092647;28;20024;-76
2023/01/14 05:37:24;;;;;;;17.98;12.80;;;2.60;99.90;;;;;;5071736;28;20158;-76
2023/01/14 05:39:50;;;;;;;19.05;12.27;;;2.60;99.90;;;;;;5091982;28;20028;-76
2023/01/14 05:47:44;;;;;;;17.85;11.40;;;2.50;99.90;;;;;;5093903;28;20049;-76
2023/01/14 05:50:13;;;;;;;17.83;12.27;;;2.40;99.90;;;;;;5091349;28;20712;-76
2023/01/14 05:52:39;;;;;;;16.52;13.38;;;2.40;99.90;;;;;;5093375;28;20373;-76
2023/01/14 05:55:05;;;;;;;18.73;13.23;;;2.40;99.90;;;;;;5091736;28;20134;-75
2023/01/14 05:57:31;;;;;;;18.75;13.73;;;2.40;99.90;;;;;;5094187;28;20012;-76
2023/01/14 05:59:57;;;;;;;23.27;14.20;;;2.40;99.90;;;;;;5092004;28;20091;-76
2023/01/14 06:07:55;;;;;;;18.02;12.82;;;2.40;99.90;;;;;;5093236;28;20046;-76
2023/01/14 06:10:24;;;;;;;18.63;13.23;;;2.40;99.90;;;;;;5091144;28;20472;-75
2023/01/14 06:12:57;;;;;;;31.23;13.95;;;2.40;99.90;;;;;;5075463;28;20075;-76
2023/01/14 06:15:25;;;;;;;23.00;14.35;;;2.50;99.90;;;;;;5090074;28;20050;-76
2023/01/14 06:18:08;;;;;;;29.33;13.82;;;2.50;99.90;;;;;;5093756;28;20484;-76
2023/01/14 06:20:34;;;;;;;24.95;13.23;;;2.50;99.90;;;;;;5078863;28;20077;-75
2023/01/14 06:23:00;;;;;;;16.20;12.30;;;2.50;99.90;;;;;;5097390;28;20047;-75
2023/01/14 06:25:28;;;;;;;20.27;13.75;;;2.40;99.90;;;;;;5086275;28;20037;-75
2023/01/14 06:27:54;;;;;;;19.98;12.23;;;2.50;99.90;;;;;;5086916;28;20024;-76
2023/01/14 06:30:19;;;;;;;27.33;14.60;;;2.50;99.90;;;;;;5075075;28;20029;-76
2023/01/14 06:32:45;;;;;;;20.33;15.35;;;2.50;99.90;;;;;;5088051;28;20584;-75
2023/01/14 06:35:11;;;;;;;30.02;16.90;;;2.40;99.90;;;;;;5090192;28;20025;-75
2023/01/14 06:37:36;;;;;;;18.75;14.70;;;2.40;99.90;;;;;;5088512;28;20012;-76
2023/01/14 06:40:02;;;;;;;24.30;15.52;;;2.40;99.90;;;;;;5090692;28;20496;-75
2023/01/14 06:42:28;;;;;;;26.23;14.38;;;2.40;99.90;;;;;;5072179;28;20035;-75
2023/01/14 06:44:54;;;;;;;25.42;15.50;;;2.40;99.90;;;;;;5090774;28;20492;-76
2023/01/14 06:47:19;;;;;;;21.27;15.30;;;2.40;99.90;;;;;;5073343;28;20028;-76
2023/01/14 06:49:45;;;;;;;25.88;14.40;;;2.40;99.90;;;;;;5091499;28;20024;-76
2023/01/14 06:52:11;;;;;;;17.80;13.63;;;2.50;99.90;;;;;;5073421;28;20023;-76
2023/01/14 06:54:36;;;;;;;18.27;12.88;;;2.40;99.90;;;;;;5092399;28;20026;-76
2023/01/14 06:57:04;;;;;;;17.90;12.10;;;2.50;99.90;;;;;;5092090;28;20020;-76
2023/01/14 06:59:30;;;;;;;20.55;15.15;;;2.50;99.90;;;;;;5093354;28;20075;-76
2023/01/14 07:01:55;;;;;;;21.90;12.85;;;2.50;99.90;;;;;;5085737;28;20451;-76
2023/01/14 07:04:21;;;;;;;18.75;12.73;;;2.50;99.90;;;;;;5094581;28;20027;-76
2023/01/14 07:06:47;;;;;;;16.70;13.05;;;2.40;99.90;;;;;;5086289;28;20020;-75
2023/01/14 07:09:13;;;;;;;22.80;12.75;;;2.50;99.90;;;;;;5094838;28;20028;-76
2023/01/14 07:11:39;;;;;;;19.92;15.23;;;2.50;99.90;;;;;;5065689;28;20027;-75
2023/01/14 07:14:07;;;;;;;20.40;13.43;;;2.50;99.90;;;;;;5076604;28;20040;-76
2023/01/14 07:16:32;;;;;;;24.70;13.05;;;2.50;99.90;;;;;;5086757;28;20028;-75
2023/01/14 07:18:58;;;;;;;17.60;13.70;;;2.50;99.90;;;;;;5095549;28;20020;-75
2023/01/14 07:21:24;;;;;;;18.88;13.57;;;2.50;99.90;;;;;;5090806;28;20515;-76
2023/01/14 07:23:50;;;;;;;16.38;12.75;;;2.50;99.90;;;;;;5088432;28;20384;-76
2023/01/14 07:26:17;;;;;;;17.27;13.93;;;2.50;99.90;;;;;;5081562;28;20094;-76
2023/01/14 07:28:43;;;;;;;15.55;12.35;;;2.40;99.90;;;;;;5089524;28;20024;-75
2023/01/14 07:31:09;;;;;;;16.58;12.75;;;2.40;99.90;;;;;;5086357;28;20031;-76
2023/01/14 07:33:35;;;;;;;18.77;12.82;;;2.30;99.90;;;;;;5089250;28;20103;-76
2023/01/14 07:36:01;;;;;;;14.32;11.82;;;2.30;99.90;;;;;;5087462;28;20020;-76
2023/01/14 07:38:26;;;;;;;16.13;12.80;;;2.40;99.90;;;;;;5089003;28;20031;-76
2023/01/14 07:40:53;;;;;;;15.75;13.27;;;2.40;99.90;;;;;;5089908;28;20097;-76
2023/01/14 07:43:19;;;;;;;15.98;13.50;;;2.40;99.90;;;;;;5078534;28;20822;-75
2023/01/14 07:45:45;;;;;;;17.48;13.70;;;2.30;99.90;;;;;;5089965;28;20154;-77
2023/01/14 07:48:11;;;;;;;16.65;12.05;;;2.40;99.90;;;;;;5090129;28;20056;-76
2023/01/14 07:50:37;;;;;;;18.17;10.55;;;2.40;99.90;;;;;;5063798;28;20020;-77
2023/01/14 07:53:03;;;;;;;18.00;11.20;;;2.40;99.90;;;;;;5081915;28;20024;-77
2023/01/14 07:55:28;;;;;;;13.20;10.55;;;2.50;99.90;;;;;;5081257;28;20028;-76
2023/01/14 07:57:54;;;;;;;14.10;11.48;;;2.60;99.90;;;;;;5062479;28;20021;-77
2023/01/14 08:00:21;;;;;;;14.23;10.00;;;2.60;99.90;;;;;;5077953;28;20092;-77
2023/01/14 08:02:47;;;;;;;12.15;10.15;;;2.70;99.90;;;;;;5076533;28;20024;-77
2023/01/14 08:05:13;;;;;;;13.18;10.48;;;2.80;99.90;;;;;;5077539;28;20428;-77
2023/01/14 08:07:39;;;;;;;15.57;11.05;;;2.90;99.90;;;;;;5073863;28;20032;-77
2023/01/14 08:10:06;;;;;;;14.13;10.25;;;3.00;99.90;;;;;;5065645;28;20028;-77
2023/01/14 08:12:32;;;;;;;16.58;11.45;;;3.10;99.90;;;;;;5057220;28;20048;-76
2023/01/14 08:14:59;;;;;;;13.52;11.68;;;3.20;99.90;;;;;;5079988;28;20032;-76
2023/01/14 08:17:24;;;;;;;14.98;11.30;;;3.30;99.90;;;;;;5073834;28;20103;-75
2023/01/14 08:19:50;;;;;;;16.70;13.00;;;3.30;99.90;;;;;;5060381;28;20060;-75
2023/01/14 08:22:16;;;;;;;19.67;13.50;;;3.30;99.90;;;;;;5060751;28;20020;-75
2023/01/14 08:24:41;;;;;;;17.10;12.20;;;3.30;99.90;;;;;;5060602;28;20028;-75
2023/01/14 08:27:07;;;;;;;23.23;13.20;;;3.40;99.90;;;;;;5066001;28;20565;-75
2023/01/14 08:29:33;;;;;;;18.23;12.40;;;3.40;99.90;;;;;;5088530;28;20032;-76
2023/01/14 08:31:59;;;;;;;18.23;13.32;;;3.40;99.90;;;;;;5084886;28;20067;-76
2023/01/14 08:34:24;;;;;;;24.02;17.83;;;3.50;99.90;;;;;;5090953;28;20055;-76
2023/01/14 08:36:50;;;;;;;24.10;13.75;;;3.50;99.90;;;;;;5069805;28;20073;-76
2023/01/14 08:39:17;;;;;;;19.77;15.27;;;3.60;99.90;;;;;;5085466;28;20035;-75
2023/01/14 08:41:43;;;;;;;24.80;19.17;;;3.60;99.90;;;;;;5090634;28;20020;-75
2023/01/14 08:44:10;;;;;;;21.33;14.13;;;3.60;99.90;;;;;;5088519;28;20432;-75
2023/01/14 08:46:37;;;;;;;27.15;20.33;;;3.70;99.90;;;;;;5090993;28;20024;-76
2023/01/14 08:49:04;;;;;;;43.22;22.05;;;3.70;99.90;;;;;;5088335;28;20043;-75
2023/01/14 08:51:30;;;;;;;43.80;21.75;;;3.80;99.90;;;;;;5089025;28;20380;-76
2023/01/14 08:53:56;;;;;;;25.38;17.45;;;3.90;99.90;;;;;;5069902;28;20024;-76
2023/01/14 08:56:22;;;;;;;69.20;47.28;;;4.00;99.90;;;;;;5063868;28;20021;-75
2023/01/14 08:58:48;;;;;;;110.60;73.97;;;4.00;99.90;;;;;;5066107;28;20214;-75
2023/01/14 09:01:14;;;;;;;33.40;20.55;;;4.00;99.90;;;;;;5086600;28;20135;-76
2023/01/14 09:03:42;;;;;;;37.85;17.65;;;4.20;99.90;;;;;;5062615;28;20020;-76
2023/01/14 09:06:10;;;;;;;28.08;17.95;;;4.20;99.90;;;;;;5066897;28;20103;-76
2023/01/14 09:17:05;;;;;;;27.80;19.35;;;4.30;99.90;;;;;;5089262;28;20039;-76
2023/01/14 09:19:34;;;;;;;28.40;18.38;;;4.40;99.90;;;;;;5087499;28;20035;-76
2023/01/14 09:22:00;;;;;;;35.72;17.95;;;4.50;99.90;;;;;;5068687;28;20388;-76
2023/01/14 09:24:26;;;;;;;28.77;18.05;;;4.60;99.90;;;;;;5088307;28;20036;-76
2023/01/14 09:26:51;;;;;;;32.83;16.83;;;4.60;99.90;;;;;;5067639;28;20032;-76
2023/01/14 09:29:17;;;;;;;32.75;14.95;;;4.60;99.90;;;;;;5068142;28;20056;-76
2023/01/14 09:31:43;;;;;;;21.25;15.43;;;4.70;99.90;;;;;;5086609;28;20546;-76
2023/01/14 09:34:08;;;;;;;34.63;19.25;;;4.70;99.90;;;;;;5082667;28;20035;-76
2023/01/14 09:36:35;;;;;;;30.83;18.77;;;4.70;99.90;;;;;;5087066;28;20025;-76
2023/01/14 09:39:00;;;;;;;23.65;18.35;;;4.70;99.90;;;;;;5088253;28;20082;-76
2023/01/14 09:41:36;;;;;;;24.55;16.15;;;4.80;99.90;;;;;;5068629;28;20028;-77
2023/01/14 09:44:05;;;;;;;20.73;14.38;;;4.90;99.90;;;;;;5088532;28;20423;-77
2023/01/14 09:46:31;;;;;;;17.27;13.73;;;5.00;99.90;;;;;;5072048;28;20036;-76
2023/01/14 09:49:01;;;;;;;16.48;13.75;;;5.10;99.90;;;;;;5087395;28;20031;-76
2023/01/14 09:51:26;;;;;;;15.63;12.23;;;5.20;99.90;;;;;;5067549;28;20059;-76
2023/01/14 09:54:37;;;;;;;16.30;12.75;;;5.20;99.90;;;;;;5085666;28;20024;-76
2023/01/14 09:57:11;;;;;;;18.27;13.00;;;5.30;99.90;;;;;;5077592;28;20032;-76
2023/01/14 10:00:15;;;;;;;23.02;14.85;;;5.40;99.90;;;;;;5085249;28;20096;-76
2023/01/14 10:02:52;;;;;;;18.92;15.15;;;5.50;99.90;;;;;;5086449;28;20077;-76
2023/01/14 10:05:28;;;;;;;25.30;15.60;;;5.50;99.90;;;;;;5086589;28;20085;-75
2023/01/14 10:07:59;;;;;;;20.20;14.98;;;5.60;99.90;;;;;;5084310;28;20099;-76
2023/01/14 10:10:30;;;;;;;22.02;15.43;;;5.70;99.90;;;;;;5068150;28;20031;-76
2023/01/14 10:13:01;;;;;;;18.73;15.68;;;5.80;99.90;;;;;;5070085;28;20459;-75
2023/01/14 10:15:49;;;;;;;23.38;16.00;;;6.00;99.90;;;;;;5066230;28;20048;-76
2023/01/14 10:18:46;;;;;;;20.08;14.13;;;6.10;99.90;;;;;;5077985;28;20055;-76
2023/01/14 10:21:16;;;;;;;17.00;12.73;;;6.40;99.90;;;;;;5084134;28;20058;-76
2023/01/14 10:23:42;;;;;;;19.85;13.00;;;6.60;99.90;;;;;;5065709;28;20035;-76
2023/01/14 10:26:16;;;;;;;16.23;12.93;;;6.80;99.90;;;;;;5083962;28;20026;-75
2023/01/14 10:28:50;;;;;;;19.58;12.55;;;7.10;99.90;;;;;;5087520;28;20055;-75
2023/01/14 10:31:21;;;;;;;17.88;12.98;;;7.50;99.90;;;;;;5066913;28;20144;-75
2023/01/14 10:33:47;;;;;;;19.83;13.00;;;7.80;99.90;;;;;;5087141;28;20020;-75
2023/01/14 10:36:19;;;;;;;17.55;12.63;;;8.10;99.90;;;;;;5087498;28;20020;-75
2023/01/14 10:38:46;;;;;;;15.60;11.35;;;8.50;99.90;;;;;;5085994;28;20117;-75
2023/01/14 10:41:13;;;;;;;14.88;10.10;;;8.80;99.90;;;;;;5078326;28;20085;-75
2023/01/14 10:43:43;;;;;;;13.20;8.77;;;9.00;99.90;;;;;;5067886;28;20024;-75
2023/01/14 10:46:17;;;;;;;11.82;7.47;;;9.10;99.90;;;;;;5088042;28;20091;-76
2023/01/14 10:49:18;;;;;;;8.65;6.78;;;9.30;99.90;;;;;;5094190;28;20036;-75
2023/01/14 10:51:47;;;;;;;7.32;6.22;;;9.50;99.90;;;;;;5070750;28;20127;-75
2023/01/14 10:54:24;;;;;;;12.52;6.78;;;9.60;99.90;;;;;;5095091;28;20477;-76
2023/01/14 10:56:55;;;;;;;11.55;6.70;;;9.70;99.90;;;;;;5088948;28;20020;-75
2023/01/14 10:59:29;;;;;;;11.38;7.30;;;9.70;99.90;;;;;;5094441;28;20099;-75
2023/01/14 11:01:55;;;;;;;12.43;7.93;;;9.70;99.90;;;;;;5084893;28;20034;-77
2023/01/14 11:04:26;;;;;;;18.33;8.38;;;9.70;99.90;;;;;;5076242;28;20087;-76
2023/01/14 11:06:52;;;;;;;17.88;8.43;;;9.70;99.90;;;;;;5086198;28;20051;-76
2023/01/14 11:09:22;;;;;;;119.53;61.10;;;9.90;99.90;;;;;;5094942;28;20502;-76
2023/01/14 11:11:48;;;;;;;29.27;12.27;;;9.90;99.90;;;;;;5085721;28;20020;-76
2023/01/14 11:14:37;;;;;;;104.68;40.53;;;10.00;99.90;;;;;;5094650;28;20041;-76
2023/01/14 11:17:21;;;;;;;34.50;13.63;;;10.10;99.90;;;;;;5076305;28;20111;-76
2023/01/14 11:19:47;;;;;;;459.60;157.02;;;10.10;99.90;;;;;;5093185;28;20031;-76
2023/01/14 11:22:13;;;;;;;137.38;41.80;;;10.30;99.90;;;;;;5075300;28;20029;-76
2023/01/14 11:24:44;;;;;;;97.53;30.98;;;10.40;99.90;;;;;;5091531;28;20060;-76
2023/01/14 11:27:20;;;;;;;234.70;72.28;;;10.40;99.90;;;;;;5080205;28;20055;-76
2023/01/14 11:30:15;;;;;;;28.45;10.20;;;10.40;99.90;;;;;;5089584;28;20037;-76
2023/01/14 11:32:45;;;;;;;391.88;124.47;;;10.40;99.90;;;;;;5086826;28;20062;-76
2023/01/14 11:35:35;;;;;;;24.42;10.13;;;10.40;99.90;;;;;;5090290;28;20024;-76
2023/01/14 11:38:03;;;;;;;69.70;21.63;;;10.40;99.90;;;;;;5093439;28;20016;-76
2023/01/14 11:43:24;;;;;;;445.95;170.50;;;10.50;99.90;;;;;;5096604;28;20031;-76
2023/01/14 11:46:10;;;;;;;126.80;46.17;;;10.60;99.90;;;;;;5077879;28;20392;-76
2023/01/14 11:48:36;;;;;;;34.20;12.43;;;10.70;99.90;;;;;;5089658;28;20024;-76
2023/01/14 11:51:04;;;;;;;12.90;6.32;;;10.80;99.90;;;;;;5089053;28;20035;-76
2023/01/14 11:53:44;;;;;;;252.07;100.53;;;10.80;99.90;;;;;;5075903;28;20044;-76
2023/01/14 11:56:35;;;;;;;97.97;41.10;;;10.80;99.90;;;;;;5089527;28;20028;-76
2023/01/14 11:59:24;;;;;;;43.50;16.52;;;10.80;99.90;;;;;;5092278;28;20020;-76
2023/01/14 12:01:54;;;;;;;50.30;26.88;;;10.70;99.90;;;;;;5081098;28;20036;-76
2023/01/14 12:04:25;;;;;;;20.30;11.00;;;10.70;99.90;;;;;;5096528;28;20491;-77
2023/01/14 12:07:08;;;;;;;15.85;7.13;;;10.70;99.90;;;;;;5095088;28;20085;-76
2023/01/14 12:09:47;;;;;;;19.08;6.30;;;10.60;99.90;;;;;;5095354;28;20031;-76
2023/01/14 12:18:54;;;;;;;18.63;10.88;;;10.60;99.90;;;;;;5007645;28;20091;-77
2023/01/14 12:21:26;;;;;;;11.98;5.07;;;10.70;99.90;;;;;;5058368;28;20400;-76
2023/01/14 12:24:02;;;;;;;6.35;4.15;;;10.70;99.90;;;;;;5080984;28;20050;-76
2023/01/14 12:26:35;;;;;;;13.70;5.57;;;10.80;99.90;;;;;;5093696;28;20017;-76
2023/01/14 12:29:05;;;;;;;10.68;4.63;;;10.80;99.90;;;;;;5097740;28;20028;-76
2023/01/14 12:32:08;;;;;;;12.17;9.20;;;10.90;99.90;;;;;;5094244;28;20031;-77
2023/01/14 12:34:51;;;;;;;8.63;4.05;;;11.10;99.90;;;;;;5079753;28;20338;-76
2023/01/14 12:37:31;;;;;;;7.78;4.07;;;11.30;99.90;;;;;;5096453;28;20024;-76
2023/01/14 12:45:52;;;;;;;10.77;4.35;;;11.50;99.90;;;;;;5093012;28;20034;-74
2023/01/14 12:48:20;;;;;;;6.78;3.45;;;11.60;99.90;;;;;;5079793;28;20038;-74
2023/01/14 12:50:55;;;;;;;6.28;3.15;;;11.70;99.90;;;;;;5079620;28;20021;-75
2023/01/14 12:53:26;;;;;;;9.13;4.10;;;11.70;99.90;;;;;;5097334;28;20013;-74
2023/01/14 12:55:55;;;;;;;11.45;4.28;;;11.80;99.90;;;;;;5088162;28;20601;-75
2023/01/14 12:58:24;;;;;;;8.85;3.85;;;11.90;99.90;;;;;;5059814;28;20047;-75
2023/01/14 13:00:57;;;;;;;11.05;3.97;;;11.90;99.90;;;;;;5060472;28;20029;-75
2023/01/14 13:03:43;;;;;;;7.95;3.17;;;11.90;99.90;;;;;;5078118;28;20048;-75
2023/01/14 13:06:17;;;;;;;9.50;3.72;;;12.10;99.90;;;;;;5063734;28;20028;-74
2023/01/14 13:08:50;;;;;;;11.27;3.40;;;12.10;99.90;;;;;;5078938;28;20028;-75
2023/01/14 13:11:36;;;;;;;7.30;3.95;;;12.10;99.90;;;;;;5083556;28;20044;-74
2023/01/14 13:14:03;;;;;;;8.57;4.55;;;12.20;99.90;;;;;;5061040;28;20146;-75
2023/01/14 13:16:37;;;;;;;9.50;3.55;;;12.40;99.90;;;;;;5083863;28;20091;-75
2023/01/14 13:19:22;;;;;;;11.82;4.25;;;12.50;99.90;;;;;;5075537;28;20068;-75
2023/01/14 13:21:56;;;;;;;7.43;3.67;;;12.50;99.90;;;;;;5079462;28;20217;-76
2023/01/14 13:24:34;;;;;;;8.93;3.80;;;12.50;99.90;;;;;;5096387;28;20100;-75
2023/01/14 13:27:04;;;;;;;7.88;4.15;;;12.60;99.90;;;;;;5092463;28;20062;-77
2023/01/14 13:29:32;;;;;;;7.05;3.63;;;12.60;99.90;;;;;;5095564;28;20405;-75
2023/01/14 13:31:59;;;;;;;4.68;3.03;;;12.50;99.90;;;;;;5092084;28;20024;-76
2023/01/14 13:34:35;;;;;;;8.00;3.63;;;12.50;99.90;;;;;;5094972;28;20021;-75
2023/01/14 13:37:00;;;;;;;12.13;4.15;;;12.40;99.90;;;;;;5095391;28;20016;-75